Time,TemperatureF,DewpointF,PressureIn,WindDirection,WindDirectionDegrees,WindSpeedMPH,WindSpeedGustMPH,Humidity,HourlyPrecipIn,Conditions,Clouds,dailyrainin,SoftwareType,DateUTC
2013-11-29 00:03:00,22.0,20.3,30.29,South,172,0.0,0.0,93,0.00,CLR,SKC,0.00,WeatherDisplay:10.37,2013-11-29 07:03:00,
2013-11-29 00:08:00,22.0,20.3,30.29,South,172,0.0,0.0,93,0.00,CLR,SKC,0.00,WeatherDisplay:10.37,2013-11-29 07:08:00,
2013-11-29 00:14:00,21.8,19.8,30.29,South,172,0.0,0.0,92,0.00,CLR,SKC,0.00,WeatherDisplay:10.37,2013-11-29 07:14:00,
2013-11-29 00:19:00,21.7,19.7,30.30,South,172,0.0,0.0,92,0.00,CLR,SKC,0.00,WeatherDisplay:10.37,2013-11-29 07:19:00,
2013-11-29 00:24:00,21.7,20.0,30.29,South,172,0.0,0.0,93,0.00,CLR,SKC,0.00,WeatherDisplay:10.37,2013-11-29 07:24:00,
2013-11-29 00:29:00,21.7,20.0,30.29,South,172,0.0,0.0,93,0.00,CLR,SKC,0.00,WeatherDisplay:10.37,2013-11-29 07:29:00,
2013-11-29 00:34:00,21.8,20.1,30.29,South,172,0.0,0.0,93,0.00,CLR,SKC,0.00,WeatherDisplay:10.37,2013-11-29 07:34:00,
2013-11-29 00:39:00,21.9,20.2,30.30,South,172,0.0,0.0,93,0.00,CLR,SKC,0.00,WeatherDisplay:10.37,2013-11-29 07:39:00,
2013-11-29 00:44:00,21.9,20.2,30.30,South,172,1.1,1.1,93,0.00,CLR,SKC,0.00,WeatherDisplay:10.37,2013-11-29 07:44:00,
2013-11-29 00:49:00,21.7,19.7,30.30,SSE,150,0.0,0.0,92,0.00,CLR,SKC,0.00,WeatherDisplay:10.37,2013-11-29 07:49:00,
2013-11-29 00:55:00,21.4,19.4,30.30,SSE,150,0.0,0.0,92,0.00,CLR,SKC,0.00,WeatherDisplay:10.37,2013-11-29 07:55:00,
2013-11-29 01:00:00,21.2,19.2,30.30,SSE,150,0.0,0.0,92,0.00,CLR,SKC,0.00,WeatherDisplay:10.37,2013-11-29 08:00:00,
2013-11-29 01:05:00,21.0,19.0,30.30,SSE,150,0.0,0.0,92,0.00,CLR,SKC,0.00,WeatherDisplay:10.37,2013-11-29 08:05:00,
2013-11-29 01:10:00,20.8,18.8,30.30,SSE,150,0.0,0.0,92,0.00,CLR,SKC,0.00,WeatherDisplay:10.37,2013-11-29 08:10:00,
2013-11-29 01:15:00,20.8,18.8,30.31,SSE,150,0.0,0.0,92,0.00,CLR,SKC,0.00,WeatherDisplay:10.37,2013-11-29 08:15:00,
2013-11-29 01:20:00,20.6,18.6,30.31,SSE,150,0.0,0.0,92,0.00,CLR,SKC,0.00,WeatherDisplay:10.37,2013-11-29 08:20:00,
2013-11-29 01:26:00,20.3,18.3,30.31,SSE,150,1.1,0.0,92,0.00,CLR,SKC,0.00,WeatherDisplay:10.37,2013-11-29 08:26:00,
2013-11-29 01:31:00,20.2,18.5,30.30,SSE,150,0.0,0.0,93,0.00,CLR,SKC,0.00,WeatherDisplay:10.37,2013-11-29 08:31:00,
2013-11-29 01:36:00,20.2,18.5,30.31,SSE,150,0.0,0.0,93,0.00,CLR,SKC,0.00,WeatherDisplay:10.37,2013-11-29 08:36:00,
2013-11-29 01:42:00,20.2,18.5,30.31,SSE,150,0.0,0.0,93,0.00,CLR,SKC,0.00,WeatherDisplay:10.37,2013-11-29 08:42:00,
2013-11-29 01:47:00,20.1,18.4,30.31,SSE,150,0.0,0.0,93,0.00,CLR,SKC,0.00,WeatherDisplay:10.37,2013-11-29 08:47:00,
2013-11-29 01:52:00,20.0,18.1,30.30,SSE,150,0.0,0.0,92,0.00,CLR,SKC,0.00,WeatherDisplay:10.37,2013-11-29 08:52:00,
2013-11-29 01:57:00,19.8,18.1,30.31,SSE,150,0.0,0.0,93,0.00,CLR,SKC,0.00,WeatherDisplay:10.37,2013-11-29 08:57:00,
2013-11-29 02:02:00,19.7,18.0,30.31,SSE,150,0.0,0.0,93,0.00,CLR,SKC,0.00,WeatherDisplay:10.37,2013-11-29 09:02:00,
2013-11-29 02:07:00,19.7,18.0,30.30,SSE,150,0.0,0.0,93,0.00,CLR,SKC,0.00,WeatherDisplay:10.37,2013-11-29 09:07:00,
2013-11-29 02:12:00,19.6,17.9,30.31,SSE,150,0.0,0.0,93,0.00,CLR,SKC,0.00,WeatherDisplay:10.37,2013-11-29 09:12:00,
2013-11-29 02:17:00,19.6,17.9,30.30,SSE,150,1.1,1.1,93,0.00,CLR,SKC,0.00,WeatherDisplay:10.37,2013-11-29 09:17:00,
2013-11-29 02:22:00,19.5,17.8,30.31,SSE,150,0.0,0.0,93,0.00,CLR,SKC,0.00,WeatherDisplay:10.37,2013-11-29 09:22:00,
2013-11-29 02:27:00,19.4,17.7,30.31,SSE,150,0.0,0.0,93,0.00,CLR,SKC,0.00,WeatherDisplay:10.37,2013-11-29 09:27:00,
2013-11-29 02:32:00,19.4,17.7,30.31,SSE,150,0.0,0.0,93,0.00,CLR,SKC,0.00,WeatherDisplay:10.37,2013-11-29 09:32:00,
2013-11-29 02:37:00,19.3,17.6,30.31,SSE,150,0.0,0.0,93,0.00,CLR,SKC,0.00,WeatherDisplay:10.37,2013-11-29 09:37:00,
2013-11-29 02:42:00,19.1,17.2,30.31,SSE,150,0.0,0.0,92,0.00,CLR,SKC,0.00,WeatherDisplay:10.37,2013-11-29 09:42:00,
2013-11-29 02:47:00,19.0,17.1,30.32,SSE,150,0.0,0.0,92,0.00,CLR,SKC,0.00,WeatherDisplay:10.37,2013-11-29 09:47:00,
2013-11-29 02:52:00,19.1,17.4,30.32,SSE,150,0.0,0.0,93,0.00,CLR,SKC,0.00,WeatherDisplay:10.37,2013-11-29 09:52:00,
2013-11-29 02:58:00,19.0,17.1,30.32,SSE,150,0.0,0.0,92,0.00,CLR,SKC,0.00,WeatherDisplay:10.37,2013-11-29 09:58:00,
2013-11-29 03:03:00,18.8,16.9,30.32,SSE,150,0.0,0.0,92,0.00,CLR,SKC,0.00,WeatherDisplay:10.37,2013-11-29 10:03:00,
2013-11-29 03:08:00,18.6,16.7,30.32,SSE,150,0.0,0.0,92,0.00,CLR,SKC,0.00,WeatherDisplay:10.37,2013-11-29 10:08:00,
2013-11-29 03:13:00,18.4,16.5,30.32,SSE,150,0.0,0.0,92,0.00,CLR,SKC,0.00,WeatherDisplay:10.37,2013-11-29 10:13:00,
2013-11-29 03:18:00,18.4,16.5,30.32,SSE,150,0.0,0.0,92,0.00,CLR,SKC,0.00,WeatherDisplay:10.37,2013-11-29 10:18:00,
2013-11-29 03:23:00,18.3,16.4,30.32,SSE,150,0.0,0.0,92,0.00,CLR,SKC,0.00,WeatherDisplay:10.37,2013-11-29 10:23:00,
2013-11-29 03:28:00,18.0,16.1,30.32,SSE,150,0.0,0.0,92,0.00,CLR,SKC,0.00,WeatherDisplay:10.37,2013-11-29 10:28:00,
2013-11-29 03:34:00,17.8,15.9,30.32,SSE,150,0.0,0.0,92,0.00,CLR,SKC,0.00,WeatherDisplay:10.37,2013-11-29 10:34:00,
2013-11-29 03:39:00,17.8,15.9,30.31,SSE,150,0.0,0.0,92,0.00,CLR,SKC,0.00,WeatherDisplay:10.37,2013-11-29 10:39:00,
2013-11-29 03:44:00,17.8,15.9,30.31,SSE,150,0.0,0.0,92,0.00,CLR,SKC,0.00,WeatherDisplay:10.37,2013-11-29 10:44:00,
2013-11-29 03:49:00,17.8,15.9,30.31,SSE,150,0.0,0.0,92,0.00,CLR,SKC,0.00,WeatherDisplay:10.37,2013-11-29 10:49:00,
2013-11-29 03:54:00,18.0,16.3,30.31,SSE,150,0.0,0.0,93,0.00,CLR,SKC,0.00,WeatherDisplay:10.37,2013-11-29 10:54:00,
2013-11-29 03:59:00,18.0,16.3,30.31,SSE,150,0.0,0.0,93,0.00,CLR,SKC,0.00,WeatherDisplay:10.37,2013-11-29 10:59:00,
2013-11-29 04:04:00,18.2,16.5,30.31,SSE,150,0.0,0.0,93,0.00,CLR,SKC,0.00,WeatherDisplay:10.37,2013-11-29 11:04:00,
2013-11-29 04:09:00,18.2,16.5,30.31,SSE,150,0.0,0.0,93,0.00,CLR,SKC,0.00,WeatherDisplay:10.37,2013-11-29 11:09:00,
2013-11-29 04:14:00,18.2,16.3,30.31,SSE,150,0.0,0.0,92,0.00,CLR,SKC,0.00,WeatherDisplay:10.37,2013-11-29 11:14:00,
2013-11-29 04:20:00,18.1,16.2,30.31,SSE,150,0.0,0.0,92,0.00,CLR,SKC,0.00,WeatherDisplay:10.37,2013-11-29 11:20:00,
2013-11-29 04:25:00,18.0,16.1,30.30,SSE,150,1.1,1.1,92,0.00,CLR,SKC,0.00,WeatherDisplay:10.37,2013-11-29 11:25:00,
2013-11-29 04:30:00,17.9,16.0,30.31,SSE,150,0.0,0.0,92,0.00,CLR,SKC,0.00,WeatherDisplay:10.37,2013-11-29 11:30:00,
2013-11-29 04:35:00,17.7,15.8,30.31,SSE,150,0.0,0.0,92,0.00,CLR,SKC,0.00,WeatherDisplay:10.37,2013-11-29 11:35:00,
2013-11-29 04:40:00,17.7,15.8,30.31,SSE,150,0.0,0.0,92,0.00,CLR,SKC,0.00,WeatherDisplay:10.37,2013-11-29 11:40:00,
2013-11-29 04:45:00,17.5,15.6,30.31,SSE,150,0.0,0.0,92,0.00,CLR,SKC,0.00,WeatherDisplay:10.37,2013-11-29 11:45:00,
2013-11-29 04:50:00,17.4,15.5,30.31,SSE,150,0.0,0.0,92,0.00,CLR,SKC,0.00,WeatherDisplay:10.37,2013-11-29 11:50:00,
2013-11-29 04:55:00,17.3,15.4,30.31,SSE,150,0.0,0.0,92,0.00,CLR,SKC,0.00,WeatherDisplay:10.37,2013-11-29 11:55:00,
2013-11-29 05:01:00,17.2,15.3,30.31,SSE,150,0.0,0.0,92,0.00,CLR,SKC,0.00,WeatherDisplay:10.37,2013-11-29 12:01:00,
2013-11-29 05:06:00,17.3,15.4,30.32,SSE,150,0.0,0.0,92,0.00,CLR,SKC,0.00,WeatherDisplay:10.37,2013-11-29 12:06:00,
2013-11-29 05:11:00,17.3,15.4,30.32,SSE,150,0.0,0.0,92,0.00,CLR,SKC,0.00,WeatherDisplay:10.37,2013-11-29 12:11:00,
2013-11-29 05:16:00,17.2,15.3,30.31,SSE,150,0.0,0.0,92,0.00,CLR,SKC,0.00,WeatherDisplay:10.37,2013-11-29 12:16:00,
2013-11-29 05:21:00,17.2,15.3,30.32,SSE,150,0.0,0.0,92,0.00,CLR,SKC,0.00,WeatherDisplay:10.37,2013-11-29 12:21:00,
2013-11-29 05:26:00,17.2,15.3,30.32,SSE,150,0.0,0.0,92,0.00,CLR,SKC,0.00,WeatherDisplay:10.37,2013-11-29 12:26:00,
2013-11-29 05:31:00,17.2,15.3,30.32,SSE,150,0.0,0.0,92,0.00,CLR,SKC,0.00,WeatherDisplay:10.37,2013-11-29 12:31:00,
2013-11-29 05:36:00,17.1,15.2,30.31,SSE,150,0.0,0.0,92,0.00,CLR,SKC,0.00,WeatherDisplay:10.37,2013-11-29 12:36:00,
2013-11-29 05:41:00,17.1,15.2,30.31,SSE,150,0.0,0.0,92,0.00,CLR,SKC,0.00,WeatherDisplay:10.37,2013-11-29 12:41:00,
2013-11-29 05:46:00,17.0,15.1,30.31,SSE,150,0.0,0.0,92,0.00,CLR,SKC,0.00,WeatherDisplay:10.37,2013-11-29 12:46:00,
2013-11-29 05:51:00,17.0,15.1,30.31,SSE,150,0.0,0.0,92,0.00,CLR,SKC,0.00,WeatherDisplay:10.37,2013-11-29 12:51:00,
2013-11-29 05:56:00,16.9,15.0,30.31,SSE,150,1.1,0.0,92,0.00,CLR,SKC,0.00,WeatherDisplay:10.37,2013-11-29 12:56:00,
2013-11-29 06:02:00,16.9,15.0,30.31,SSE,150,1.1,1.1,92,0.00,CLR,SKC,0.00,WeatherDisplay:10.37,2013-11-29 13:02:00,
2013-11-29 06:07:00,16.9,15.0,30.31,SSE,150,0.0,0.0,92,0.00,CLR,SKC,0.00,WeatherDisplay:10.37,2013-11-29 13:07:00,
2013-11-29 06:12:00,17.0,15.1,30.32,SSE,150,0.0,0.0,92,0.00,CLR,SKC,0.00,WeatherDisplay:10.37,2013-11-29 13:12:00,
2013-11-29 06:17:00,17.0,15.1,30.32,SSE,150,0.0,0.0,92,0.00,CLR,SKC,0.00,WeatherDisplay:10.37,2013-11-29 13:17:00,
2013-11-29 06:22:00,17.1,15.2,30.32,SSE,150,0.0,0.0,92,0.00,CLR,SKC,0.00,WeatherDisplay:10.37,2013-11-29 13:22:00,
2013-11-29 06:27:00,17.0,15.1,30.32,SSE,150,0.0,0.0,92,0.00,CLR,SKC,0.00,WeatherDisplay:10.37,2013-11-29 13:27:00,
2013-11-29 06:32:00,16.9,15.0,30.32,SSE,150,0.0,0.0,92,0.00,CLR,SKC,0.00,WeatherDisplay:10.37,2013-11-29 13:32:00,
2013-11-29 06:37:00,16.7,14.5,30.32,SSE,150,0.0,0.0,91,0.00,CLR,SKC,0.00,WeatherDisplay:10.37,2013-11-29 13:37:00,
2013-11-29 06:42:00,16.6,14.4,30.32,SSE,150,0.0,0.0,91,0.00,CLR,SKC,0.00,WeatherDisplay:10.37,2013-11-29 13:42:00,
2013-11-29 06:47:00,16.5,14.3,30.33,SSE,150,0.0,0.0,91,0.00,CLR,SKC,0.00,WeatherDisplay:10.37,2013-11-29 13:47:00,
2013-11-29 06:52:00,16.4,14.2,30.33,SSE,150,0.0,0.0,91,0.00,CLR,SKC,0.00,WeatherDisplay:10.37,2013-11-29 13:52:00,
2013-11-29 06:57:00,16.3,14.1,30.33,SSE,150,0.0,0.0,91,0.00,CLR,SKC,0.00,WeatherDisplay:10.37,2013-11-29 13:57:00,
2013-11-29 07:02:00,16.2,14.0,30.32,SSE,150,0.0,0.0,91,0.00,CLR,SKC,0.00,WeatherDisplay:10.37,2013-11-29 14:02:00,
2013-11-29 07:08:00,16.1,13.9,30.32,SSE,150,0.0,0.0,91,0.00,CLR,SKC,0.00,WeatherDisplay:10.37,2013-11-29 14:08:00,
2013-11-29 07:12:00,16.1,13.9,30.33,SSE,150,0.0,0.0,91,0.00,CLR,SKC,0.00,WeatherDisplay:10.37,2013-11-29 14:12:00,
2013-11-29 07:17:00,16.2,14.3,30.33,SSE,150,1.1,0.0,92,0.00,CLR,SKC,0.00,WeatherDisplay:10.37,2013-11-29 14:17:00,
2013-11-29 07:22:00,16.2,14.0,30.33,SSE,150,0.0,0.0,91,0.00,CLR,SKC,0.00,WeatherDisplay:10.37,2013-11-29 14:22:00,
2013-11-29 07:27:00,16.1,13.9,30.32,SSE,150,0.0,0.0,91,0.00,CLR,SKC,0.00,WeatherDisplay:10.37,2013-11-29 14:27:00,
2013-11-29 07:32:00,16.1,13.9,30.33,SSE,150,0.0,0.0,91,0.00,CLR,SKC,0.00,WeatherDisplay:10.37,2013-11-29 14:32:00,
2013-11-29 07:37:00,16.1,13.9,30.33,SSE,150,0.0,0.0,91,0.00,CLR,SKC,0.00,WeatherDisplay:10.37,2013-11-29 14:37:00,
2013-11-29 07:43:00,16.0,14.1,30.33,SSE,150,0.0,0.0,92,0.00,CLR,SKC,0.00,WeatherDisplay:10.37,2013-11-29 14:43:00,
2013-11-29 07:48:00,16.0,14.1,30.33,SSE,150,0.0,0.0,92,0.00,CLR,SKC,0.00,WeatherDisplay:10.37,2013-11-29 14:48:00,
2013-11-29 07:53:00,16.0,13.8,30.34,SSE,150,0.0,0.0,91,0.00,CLR,SKC,0.00,WeatherDisplay:10.37,2013-11-29 14:53:00,
2013-11-29 07:58:00,16.0,14.1,30.34,SSE,150,1.1,0.0,92,0.00,CLR,SKC,0.00,WeatherDisplay:10.37,2013-11-29 14:58:00,
2013-11-29 08:04:00,16.1,14.2,30.34,SSE,150,0.0,0.0,92,0.00,CLR,SKC,0.00,WeatherDisplay:10.37,2013-11-29 15:04:00,
2013-11-29 08:09:00,16.1,14.2,30.34,SSE,150,0.0,0.0,92,0.00,CLR,SKC,0.00,WeatherDisplay:10.37,2013-11-29 15:09:00,
2013-11-29 08:14:00,16.1,14.2,30.34,SSE,150,0.0,0.0,92,0.00,CLR,SKC,0.00,WeatherDisplay:10.37,2013-11-29 15:14:00,
2013-11-29 08:19:00,16.3,14.6,30.34,SSE,150,1.1,0.0,93,0.00,CLR,SKC,0.00,WeatherDisplay:10.37,2013-11-29 15:19:00,
2013-11-29 08:24:00,16.5,14.8,30.34,SSE,150,0.0,0.0,93,0.00,CLR,SKC,0.00,WeatherDisplay:10.37,2013-11-29 15:24:00,
2013-11-29 08:29:00,16.7,15.0,30.34,SSE,150,0.0,0.0,93,0.00,CLR,SKC,0.00,WeatherDisplay:10.37,2013-11-29 15:29:00,
2013-11-29 08:35:00,16.9,15.2,30.34,SSE,150,0.0,0.0,93,0.00,CLR,SKC,0.00,WeatherDisplay:10.37,2013-11-29 15:35:00,
2013-11-29 08:40:00,17.0,15.3,30.34,SSE,150,0.0,0.0,93,0.00,CLR,SKC,0.00,WeatherDisplay:10.37,2013-11-29 15:40:00,
2013-11-29 08:45:00,17.1,15.4,30.34,SSE,150,0.0,0.0,93,0.00,CLR,SKC,0.00,WeatherDisplay:10.37,2013-11-29 15:45:00,
2013-11-29 08:50:00,17.3,15.6,30.34,SSE,150,1.1,0.0,93,0.00,CLR,SKC,0.00,WeatherDisplay:10.37,2013-11-29 15:50:00,
2013-11-29 08:55:00,17.5,15.8,30.34,SSE,150,0.0,0.0,93,0.00,CLR,SKC,0.00,WeatherDisplay:10.37,2013-11-29 15:55:00,
2013-11-29 09:00:00,17.7,16.0,30.34,SSE,150,0.0,0.0,93,0.00,CLR,SKC,0.00,WeatherDisplay:10.37,2013-11-29 16:00:00,
2013-11-29 09:05:00,18.0,16.3,30.34,SSE,150,0.0,0.0,93,0.00,CLR,SKC,0.00,WeatherDisplay:10.37,2013-11-29 16:05:00,
2013-11-29 09:10:00,18.2,16.5,30.35,SSE,150,0.0,0.0,93,0.00,CLR,SKC,0.00,WeatherDisplay:10.37,2013-11-29 16:10:00,
2013-11-29 09:15:00,18.4,16.7,30.35,SSE,150,0.0,0.0,93,0.00,CLR,SKC,0.00,WeatherDisplay:10.37,2013-11-29 16:15:00,
2013-11-29 09:20:00,18.6,16.9,30.35,SSE,150,0.0,0.0,93,0.00,CLR,SKC,0.00,WeatherDisplay:10.37,2013-11-29 16:20:00,
2013-11-29 09:25:00,18.9,17.2,30.35,SSE,150,0.0,0.0,93,0.00,CLR,SKC,0.00,WeatherDisplay:10.37,2013-11-29 16:25:00,
2013-11-29 09:30:00,19.1,17.4,30.35,SSE,150,0.0,0.0,93,0.00,CLR,SKC,0.00,WeatherDisplay:10.37,2013-11-29 16:30:00,
2013-11-29 09:35:00,19.1,17.4,30.35,SSE,150,1.0,0.0,93,0.00,CLR,SKC,0.00,WeatherDisplay:10.37,2013-11-29 16:35:00,
2013-11-29 09:40:00,19.1,17.4,30.35,SSE,150,0.0,0.0,93,0.00,CLR,SKC,0.00,WeatherDisplay:10.37,2013-11-29 16:40:00,
2013-11-29 09:45:00,19.2,17.5,30.35,SSE,150,0.0,0.0,93,0.00,CLR,SKC,0.00,WeatherDisplay:10.37,2013-11-29 16:45:00,
2013-11-29 09:50:00,19.3,17.6,30.35,SSE,150,0.0,0.0,93,0.00,CLR,SKC,0.00,WeatherDisplay:10.37,2013-11-29 16:50:00,
2013-11-29 09:55:00,19.3,17.6,30.35,SSE,150,0.0,0.0,93,0.00,CLR,SKC,0.00,WeatherDisplay:10.37,2013-11-29 16:55:00,
2013-11-29 10:00:00,19.4,17.7,30.36,SSE,150,0.0,0.0,93,0.00,CLR,SKC,0.00,WeatherDisplay:10.37,2013-11-29 17:00:00,
2013-11-29 10:05:00,19.7,18.0,30.35,SSE,150,0.0,0.0,93,0.00,CLR,SKC,0.00,WeatherDisplay:10.37,2013-11-29 17:05:00,
2013-11-29 10:11:00,20.1,18.7,30.35,SSE,150,0.0,0.0,94,0.00,CLR,SKC,0.00,WeatherDisplay:10.37,2013-11-29 17:11:00,
2013-11-29 10:16:00,20.4,18.9,30.35,SSE,150,0.0,0.0,94,0.00,CLR,SKC,0.00,WeatherDisplay:10.37,2013-11-29 17:16:00,
2013-11-29 10:22:00,20.9,19.4,30.35,SSE,150,0.0,0.0,94,0.00,CLR,SKC,0.00,WeatherDisplay:10.37,2013-11-29 17:22:00,
2013-11-29 10:27:00,21.2,19.7,30.34,SSE,150,0.0,0.0,94,0.00,CLR,SKC,0.00,WeatherDisplay:10.37,2013-11-29 17:27:00,
2013-11-29 10:32:00,21.5,20.0,30.34,SSE,150,0.0,0.0,94,0.00,CLR,SKC,0.00,WeatherDisplay:10.37,2013-11-29 17:32:00,
2013-11-29 10:37:00,21.7,20.2,30.34,SE,136,1.1,1.1,94,0.00,CLR,SKC,0.00,WeatherDisplay:10.37,2013-11-29 17:37:00,
2013-11-29 10:42:00,21.8,20.1,30.34,SE,136,0.0,0.0,93,0.00,CLR,SKC,0.00,WeatherDisplay:10.37,2013-11-29 17:42:00,
2013-11-29 10:47:00,22.0,20.3,30.33,SSE,164,0.0,0.0,93,0.00,CLR,SKC,0.00,WeatherDisplay:10.37,2013-11-29 17:47:00,
2013-11-29 10:52:00,22.5,20.8,30.33,SSE,164,1.1,1.1,93,0.00,CLR,SKC,0.00,WeatherDisplay:10.37,2013-11-29 17:52:00,
2013-11-29 10:57:00,22.9,21.2,30.33,SSE,164,1.1,1.1,93,0.00,CLR,SKC,0.00,WeatherDisplay:10.37,2013-11-29 17:57:00,
2013-11-29 11:02:00,23.3,21.6,30.33,SSE,164,0.0,0.0,93,0.00,CLR,SKC,0.00,WeatherDisplay:10.37,2013-11-29 18:02:00,
2013-11-29 11:07:00,23.8,22.3,30.33,SSE,164,0.0,0.0,94,0.00,CLR,SKC,0.00,WeatherDisplay:10.37,2013-11-29 18:07:00,
2013-11-29 11:12:00,24.1,22.4,30.32,SSE,164,1.1,0.0,93,0.00,CLR,SKC,0.00,WeatherDisplay:10.37,2013-11-29 18:12:00,
2013-11-29 11:17:00,24.4,22.9,30.32,SSE,164,0.0,0.0,94,0.00,CLR,SKC,0.00,WeatherDisplay:10.37,2013-11-29 18:17:00,
2013-11-29 11:22:00,24.8,23.1,30.32,SSE,159,1.1,0.0,93,0.00,CLR,SKC,0.00,WeatherDisplay:10.37,2013-11-29 18:22:00,
2013-11-29 11:27:00,24.9,23.2,30.31,ESE,123,0.0,0.0,93,0.00,CLR,SKC,0.00,WeatherDisplay:10.37,2013-11-29 18:27:00,
2013-11-29 11:32:00,25.1,23.4,30.31,ESE,123,0.0,0.0,93,0.00,CLR,SKC,0.00,WeatherDisplay:10.37,2013-11-29 18:32:00,
2013-11-29 11:37:00,25.3,23.6,30.31,ESE,123,0.0,0.0,93,0.00,CLR,SKC,0.00,WeatherDisplay:10.37,2013-11-29 18:37:00,
2013-11-29 11:42:00,25.8,24.1,30.30,ESE,123,1.1,0.0,93,0.00,CLR,SKC,0.00,WeatherDisplay:10.37,2013-11-29 18:42:00,
2013-11-29 11:47:00,26.3,24.6,30.30,ESE,123,0.0,0.0,93,0.00,CLR,SKC,0.00,WeatherDisplay:10.37,2013-11-29 18:47:00,
2013-11-29 11:52:00,26.9,25.1,30.30,ESE,123,1.1,1.1,93,0.00,CLR,SKC,0.00,WeatherDisplay:10.37,2013-11-29 18:52:00,
2013-11-29 11:57:00,27.4,25.6,30.30,ESE,109,1.1,1.1,93,0.00,CLR,SKC,0.00,WeatherDisplay:10.37,2013-11-29 18:57:00,
2013-11-29 12:01:00,27.5,25.5,30.30,ESE,109,1.1,0.0,92,0.00,CLR,SKC,0.00,WeatherDisplay:10.37,2013-11-29 19:01:00,
2013-11-29 12:06:00,27.6,25.6,30.30,ESE,109,0.0,0.0,92,0.00,CLR,SKC,0.00,WeatherDisplay:10.37,2013-11-29 19:06:00,
2013-11-29 12:11:00,27.9,25.9,30.30,ESE,109,1.1,1.1,92,0.00,CLR,SKC,0.00,WeatherDisplay:10.37,2013-11-29 19:11:00,
2013-11-29 12:16:00,28.0,25.7,30.29,ESE,109,0.0,0.0,91,0.00,CLR,SKC,0.00,WeatherDisplay:10.37,2013-11-29 19:16:00,
2013-11-29 12:21:00,28.2,25.9,30.29,ESE,109,0.0,0.0,91,0.00,CLR,SKC,0.00,WeatherDisplay:10.37,2013-11-29 19:21:00,
2013-11-29 12:26:00,28.5,26.2,30.28,ESE,109,1.0,0.0,91,0.00,CLR,SKC,0.00,WeatherDisplay:10.37,2013-11-29 19:26:00,
2013-11-29 12:31:00,28.8,26.5,30.28,ESE,109,1.1,1.1,91,0.00,CLR,SKC,0.00,WeatherDisplay:10.37,2013-11-29 19:31:00,
2013-11-29 12:36:00,29.3,26.7,30.28,ESE,109,0.0,0.0,90,0.00,CLR,SKC,0.00,WeatherDisplay:10.37,2013-11-29 19:36:00,
2013-11-29 12:41:00,29.7,26.9,30.27,ESE,109,1.1,0.0,89,0.00,CLR,SKC,0.00,WeatherDisplay:10.37,2013-11-29 19:41:00,
2013-11-29 12:46:00,30.2,27.3,30.27,ESE,109,0.0,0.0,89,0.00,CLR,SKC,0.00,WeatherDisplay:10.37,2013-11-29 19:46:00,
2013-11-29 12:51:00,31.1,27.7,30.26,ESE,109,1.1,1.1,87,0.00,CLR,SKC,0.00,WeatherDisplay:10.37,2013-11-29 19:51:00,
2013-11-29 12:56:00,31.7,28.0,30.26,ESE,109,1.1,0.0,86,0.00,CLR,SKC,0.00,WeatherDisplay:10.37,2013-11-29 19:56:00,
2013-11-29 13:01:00,32.1,27.8,30.26,ESE,109,0.0,0.0,84,0.00,CLR,SKC,0.00,WeatherDisplay:10.37,2013-11-29 20:01:00,
2013-11-29 13:06:00,32.6,27.4,30.25,East,84,0.0,0.0,81,0.00,CLR,SKC,0.00,WeatherDisplay:10.37,2013-11-29 20:06:00,
2013-11-29 13:11:00,33.0,27.8,30.25,East,84,0.0,0.0,81,0.00,CLR,SKC,0.00,WeatherDisplay:10.37,2013-11-29 20:11:00,
2013-11-29 13:16:00,33.4,27.9,30.24,East,84,2.3,2.3,80,0.00,CLR,SKC,0.00,WeatherDisplay:10.37,2013-11-29 20:16:00,
2013-11-29 13:22:00,33.9,28.4,30.24,East,84,0.0,0.0,80,0.00,CLR,SKC,0.00,WeatherDisplay:10.37,2013-11-29 20:22:00,
2013-11-29 13:27:00,34.2,28.1,30.24,East,80,2.3,2.3,78,0.00,CLR,SKC,0.00,WeatherDisplay:10.37,2013-11-29 20:27:00,
2013-11-29 13:32:00,34.4,27.9,30.24,East,80,1.1,0.0,77,0.00,CLR,SKC,0.00,WeatherDisplay:10.37,2013-11-29 20:32:00,
2013-11-29 13:37:00,34.6,27.8,30.23,East,80,1.1,1.1,76,0.00,CLR,SKC,0.00,WeatherDisplay:10.37,2013-11-29 20:37:00,
2013-11-29 13:42:00,34.8,28.0,30.24,East,80,0.0,0.0,76,0.00,CLR,SKC,0.00,WeatherDisplay:10.37,2013-11-29 20:42:00,
2013-11-29 13:48:00,35.2,27.7,30.23,ENE,78,1.1,0.0,74,0.00,CLR,SKC,0.00,WeatherDisplay:10.37,2013-11-29 20:48:00,
2013-11-29 13:53:00,35.5,27.7,30.23,ENE,78,1.1,1.1,73,0.00,CLR,SKC,0.00,WeatherDisplay:10.37,2013-11-29 20:53:00,
2013-11-29 13:58:00,35.8,28.3,30.23,ENE,78,0.0,0.0,74,0.00,CLR,SKC,0.00,WeatherDisplay:10.37,2013-11-29 20:58:00,
2013-11-29 14:03:00,35.8,28.0,30.23,ENE,78,0.0,0.0,73,0.00,CLR,SKC,0.00,WeatherDisplay:10.37,2013-11-29 21:03:00,
2013-11-29 14:08:00,35.9,27.7,30.23,ENE,78,1.1,1.1,72,0.00,CLR,SKC,0.00,WeatherDisplay:10.37,2013-11-29 21:08:00,
2013-11-29 14:13:00,36.1,27.6,30.23,ENE,78,1.1,1.1,71,0.00,CLR,SKC,0.00,WeatherDisplay:10.37,2013-11-29 21:13:00,
2013-11-29 14:18:00,36.3,27.8,30.23,ENE,78,1.1,0.0,71,0.00,CLR,SKC,0.00,WeatherDisplay:10.37,2013-11-29 21:18:00,
2013-11-29 14:23:00,36.3,28.1,30.23,ENE,78,0.0,0.0,72,0.00,CLR,SKC,0.00,WeatherDisplay:10.37,2013-11-29 21:23:00,
2013-11-29 14:28:00,36.4,27.5,30.23,ENE,78,1.1,1.1,70,0.00,CLR,SKC,0.00,WeatherDisplay:10.37,2013-11-29 21:28:00,
2013-11-29 14:33:00,36.6,27.4,30.23,ENE,78,1.1,1.1,69,0.00,CLR,SKC,0.00,WeatherDisplay:10.37,2013-11-29 21:33:00,
2013-11-29 14:38:00,36.8,27.9,30.23,ENE,78,0.0,0.0,70,0.00,CLR,SKC,0.00,WeatherDisplay:10.37,2013-11-29 21:38:00,
2013-11-29 14:43:00,36.8,27.6,30.23,ENE,78,1.1,1.1,69,0.00,CLR,SKC,0.00,WeatherDisplay:10.37,2013-11-29 21:43:00,
2013-11-29 14:48:00,36.7,27.5,30.23,ENE,78,2.0,2.0,69,0.00,CLR,SKC,0.00,WeatherDisplay:10.37,2013-11-29 21:48:00,
2013-11-29 14:53:00,36.6,27.4,30.23,ENE,78,0.0,0.0,69,0.00,CLR,SKC,0.00,WeatherDisplay:10.37,2013-11-29 21:53:00,
2013-11-29 14:58:00,36.7,27.5,30.23,ENE,66,1.1,0.0,69,0.00,CLR,SKC,0.00,WeatherDisplay:10.37,2013-11-29 21:58:00,
2013-11-29 15:03:00,36.8,27.9,30.23,ENE,66,1.1,1.1,70,0.00,CLR,SKC,0.00,WeatherDisplay:10.37,2013-11-29 22:03:00,
2013-11-29 15:05:00,36.8,27.9,30.23,ENE,66,1.1,1.1,70,0.00,CLR,SKC,0.00,WeatherDisplay:10.37,2013-11-29 22:05:00,
2013-11-29 15:09:00,36.8,27.9,30.23,ENE,66,1.1,1.1,70,0.00,CLR,SKC,0.00,WeatherDisplay:10.37,2013-11-29 22:09:00,
2013-11-29 15:15:00,36.8,27.9,30.23,ENE,66,1.1,1.1,70,0.00,CLR,SKC,0.00,WeatherDisplay:10.37,2013-11-29 22:15:00,
2013-11-29 15:36:00,36.4,27.9,30.23,ENE,66,1.1,1.1,71,0.00,CLR,SKC,0.00,WeatherDisplay:10.37,2013-11-29 22:36:00,
2013-11-29 15:41:00,36.3,27.4,30.23,ENE,66,0.0,0.0,70,0.00,CLR,SKC,0.00,WeatherDisplay:10.37,2013-11-29 22:41:00,
2013-11-29 15:46:00,36.0,27.5,30.23,ENE,66,0.0,0.0,71,0.00,CLR,SKC,0.00,WeatherDisplay:10.37,2013-11-29 22:46:00,
2013-11-29 15:51:00,35.9,27.7,30.23,ENE,66,0.0,0.0,72,0.00,CLR,SKC,0.00,WeatherDisplay:10.37,2013-11-29 22:51:00,
2013-11-29 15:56:00,35.3,27.5,30.23,ENE,66,0.0,0.0,73,0.00,CLR,SKC,0.00,WeatherDisplay:10.37,2013-11-29 22:56:00,
2013-11-29 16:01:00,35.0,27.2,30.23,ENE,66,1.0,0.0,73,0.00,CLR,SKC,0.00,WeatherDisplay:10.37,2013-11-29 23:01:00,
2013-11-29 16:06:00,34.5,27.1,30.22,ENE,66,0.0,0.0,74,0.00,CLR,SKC,0.00,WeatherDisplay:10.37,2013-11-29 23:06:00,
2013-11-29 16:11:00,34.2,27.1,30.22,ENE,66,0.0,0.0,75,0.00,CLR,SKC,0.00,WeatherDisplay:10.37,2013-11-29 23:11:00,
2013-11-29 16:16:00,33.9,27.1,30.23,ENE,66,0.0,0.0,76,0.00,CLR,SKC,0.00,WeatherDisplay:10.37,2013-11-29 23:16:00,
2013-11-29 16:21:00,33.7,27.3,30.23,ENE,66,0.0,0.0,77,0.00,CLR,SKC,0.00,WeatherDisplay:10.37,2013-11-29 23:21:00,
2013-11-29 16:26:00,33.4,27.0,30.23,ENE,66,0.0,0.0,77,0.00,CLR,SKC,0.00,WeatherDisplay:10.37,2013-11-29 23:26:00,
2013-11-29 16:30:00,33.0,26.6,30.23,ENE,66,0.0,0.0,77,0.00,CLR,SKC,0.00,WeatherDisplay:10.37,2013-11-29 23:30:00,
2013-11-29 16:35:00,32.9,26.8,30.23,ENE,66,0.0,0.0,78,0.00,CLR,SKC,0.00,WeatherDisplay:10.37,2013-11-29 23:35:00,
2013-11-29 16:40:00,32.7,26.6,30.23,ENE,66,0.0,0.0,78,0.00,CLR,SKC,0.00,WeatherDisplay:10.37,2013-11-29 23:40:00,
2013-11-29 16:45:00,32.2,26.4,30.23,ENE,66,0.0,0.0,79,0.00,CLR,SKC,0.00,WeatherDisplay:10.37,2013-11-29 23:45:00,
2013-11-29 16:50:00,31.9,26.4,30.24,ENE,66,0.0,0.0,80,0.00,CLR,SKC,0.00,WeatherDisplay:10.37,2013-11-29 23:50:00,
2013-11-29 16:56:00,31.7,26.5,30.24,ENE,66,1.1,1.1,81,0.00,CLR,SKC,0.00,WeatherDisplay:10.37,2013-11-29 23:56:00,
2013-11-29 17:01:00,31.4,26.2,30.23,ENE,66,0.0,0.0,81,0.00,CLR,SKC,0.00,WeatherDisplay:10.37,2013-11-30 00:01:00,
2013-11-29 17:06:00,31.3,26.1,30.24,ENE,66,0.0,0.0,81,0.00,CLR,SKC,0.00,WeatherDisplay:10.37,2013-11-30 00:06:00,
2013-11-29 17:11:00,31.2,26.3,30.24,ENE,66,0.0,0.0,82,0.00,CLR,SKC,0.00,WeatherDisplay:10.37,2013-11-30 00:11:00,
2013-11-29 17:16:00,31.1,26.5,30.24,ENE,66,0.0,0.0,83,0.00,CLR,SKC,0.00,WeatherDisplay:10.37,2013-11-30 00:16:00,
2013-11-29 17:22:00,30.9,26.3,30.24,ENE,66,0.0,0.0,83,0.00,CLR,SKC,0.00,WeatherDisplay:10.37,2013-11-30 00:22:00,
2013-11-29 17:27:00,30.9,26.3,30.24,ENE,66,0.0,0.0,83,0.00,CLR,SKC,0.00,WeatherDisplay:10.37,2013-11-30 00:27:00,
2013-11-29 17:32:00,30.8,26.5,30.24,ENE,66,0.0,0.0,84,0.00,CLR,SKC,0.00,WeatherDisplay:10.37,2013-11-30 00:32:00,
2013-11-29 17:37:00,30.8,26.5,30.24,ENE,66,0.0,0.0,84,0.00,CLR,SKC,0.00,WeatherDisplay:10.37,2013-11-30 00:37:00,
2013-11-29 17:42:00,30.8,26.5,30.24,ENE,66,0.0,0.0,84,0.00,CLR,SKC,0.00,WeatherDisplay:10.37,2013-11-30 00:42:00,
2013-11-29 17:47:00,30.9,26.6,30.24,ENE,66,0.0,0.0,84,0.00,CLR,SKC,0.00,WeatherDisplay:10.37,2013-11-30 00:47:00,
2013-11-29 17:52:00,30.9,26.6,30.25,ENE,66,0.0,0.0,84,0.00,CLR,SKC,0.00,WeatherDisplay:10.37,2013-11-30 00:52:00,
2013-11-29 17:58:00,31.0,26.7,30.25,ENE,66,0.0,0.0,84,0.00,CLR,SKC,0.00,WeatherDisplay:10.37,2013-11-30 00:58:00,
2013-11-29 18:03:00,31.0,26.7,30.25,ENE,66,0.0,0.0,84,0.00,CLR,SKC,0.00,WeatherDisplay:10.37,2013-11-30 01:03:00,
2013-11-29 18:08:00,31.1,26.8,30.25,ENE,66,0.0,0.0,84,0.00,CLR,SKC,0.00,WeatherDisplay:10.37,2013-11-30 01:08:00,
2013-11-29 18:13:00,31.1,26.8,30.25,ENE,66,0.0,0.0,84,0.00,CLR,SKC,0.00,WeatherDisplay:10.37,2013-11-30 01:13:00,
2013-11-29 18:18:00,31.1,26.8,30.25,ENE,66,0.0,0.0,84,0.00,CLR,SKC,0.00,WeatherDisplay:10.37,2013-11-30 01:18:00,
2013-11-29 18:24:00,31.1,26.8,30.26,ENE,66,0.0,0.0,84,0.00,CLR,SKC,0.00,WeatherDisplay:10.37,2013-11-30 01:24:00,
2013-11-29 18:30:00,31.2,26.9,30.25,ENE,66,0.0,0.0,84,0.00,CLR,SKC,0.00,WeatherDisplay:10.37,2013-11-30 01:30:00,
2013-11-29 18:35:00,31.2,26.9,30.25,ENE,66,0.0,0.0,84,0.00,CLR,SKC,0.00,WeatherDisplay:10.37,2013-11-30 01:35:00,
2013-11-29 18:40:00,31.3,27.0,30.25,ENE,66,0.0,0.0,84,0.00,CLR,SKC,0.00,WeatherDisplay:10.37,2013-11-30 01:40:00,
2013-11-29 18:45:00,31.3,27.0,30.25,South,171,0.0,0.0,84,0.00,CLR,SKC,0.00,WeatherDisplay:10.37,2013-11-30 01:45:00,
2013-11-29 18:50:00,31.4,27.1,30.26,South,171,0.0,0.0,84,0.00,CLR,SKC,0.00,WeatherDisplay:10.37,2013-11-30 01:50:00,
2013-11-29 18:55:00,31.4,27.1,30.26,South,171,0.0,0.0,84,0.00,CLR,SKC,0.00,WeatherDisplay:10.37,2013-11-30 01:55:00,
2013-11-29 19:01:00,31.4,27.1,30.26,South,171,0.0,0.0,84,0.00,CLR,SKC,0.00,WeatherDisplay:10.37,2013-11-30 02:01:00,
2013-11-29 19:06:00,31.4,27.1,30.26,South,171,0.0,0.0,84,0.00,CLR,SKC,0.00,WeatherDisplay:10.37,2013-11-30 02:06:00,
2013-11-29 19:11:00,31.4,27.4,30.27,South,171,0.0,0.0,85,0.00,CLR,SKC,0.00,WeatherDisplay:10.37,2013-11-30 02:11:00,
2013-11-29 19:17:00,31.4,27.4,30.27,South,171,0.0,0.0,85,0.00,CLR,SKC,0.00,WeatherDisplay:10.37,2013-11-30 02:17:00,
2013-11-29 19:22:00,31.4,27.4,30.27,South,171,0.0,0.0,85,0.00,CLR,SKC,0.00,WeatherDisplay:10.37,2013-11-30 02:22:00,
2013-11-29 19:27:00,31.4,27.4,30.27,South,171,0.0,0.0,85,0.00,CLR,SKC,0.00,WeatherDisplay:10.37,2013-11-30 02:27:00,
2013-11-29 19:32:00,31.4,27.4,30.27,South,171,0.0,0.0,85,0.00,CLR,SKC,0.00,WeatherDisplay:10.37,2013-11-30 02:32:00,
2013-11-29 19:37:00,31.4,27.4,30.27,South,171,0.0,0.0,85,0.00,CLR,SKC,0.00,WeatherDisplay:10.37,2013-11-30 02:37:00,
2013-11-29 19:42:00,31.4,27.4,30.27,South,171,1.1,1.1,85,0.00,CLR,SKC,0.00,WeatherDisplay:10.37,2013-11-30 02:42:00,
2013-11-29 19:47:00,31.4,27.1,30.27,South,171,0.0,0.0,84,0.00,CLR,SKC,0.00,WeatherDisplay:10.37,2013-11-30 02:47:00,
2013-11-29 19:52:00,31.4,27.1,30.27,South,171,0.0,0.0,84,0.00,CLR,SKC,0.00,WeatherDisplay:10.37,2013-11-30 02:52:00,
2013-11-29 19:57:00,31.5,27.5,30.27,SSW,211,2.3,2.3,85,0.00,CLR,SKC,0.00,WeatherDisplay:10.37,2013-11-30 02:57:00,
2013-11-29 20:02:00,31.5,27.2,30.27,SSW,211,0.0,0.0,84,0.00,CLR,SKC,0.00,WeatherDisplay:10.37,2013-11-30 03:02:00,
2013-11-29 20:07:00,31.6,27.3,30.27,ENE,78,2.3,2.3,84,0.00,CLR,SKC,0.00,WeatherDisplay:10.37,2013-11-30 03:07:00,
2013-11-29 20:12:00,31.5,27.2,30.27,ENE,78,0.0,0.0,84,0.00,CLR,SKC,0.00,WeatherDisplay:10.37,2013-11-30 03:12:00,
2013-11-29 20:17:00,31.5,27.2,30.27,ENE,78,0.0,0.0,84,0.00,CLR,SKC,0.00,WeatherDisplay:10.37,2013-11-30 03:17:00,
2013-11-29 20:22:00,31.5,27.2,30.27,ENE,78,0.0,0.0,84,0.00,CLR,SKC,0.00,WeatherDisplay:10.37,2013-11-30 03:22:00,
2013-11-29 20:27:00,31.5,27.2,30.27,ENE,78,1.1,0.0,84,0.00,CLR,SKC,0.00,WeatherDisplay:10.37,2013-11-30 03:27:00,
2013-11-29 20:32:00,31.5,27.2,30.27,ENE,78,0.0,0.0,84,0.00,CLR,SKC,0.00,WeatherDisplay:10.37,2013-11-30 03:32:00,
2013-11-29 20:37:00,31.4,27.1,30.27,ENE,78,0.0,0.0,84,0.00,CLR,SKC,0.00,WeatherDisplay:10.37,2013-11-30 03:37:00,
2013-11-29 20:42:00,31.4,26.8,30.27,ENE,78,0.0,0.0,83,0.00,CLR,SKC,0.00,WeatherDisplay:10.37,2013-11-30 03:42:00,
2013-11-29 20:47:00,31.4,27.1,30.27,East,96,0.0,0.0,84,0.00,CLR,SKC,0.00,WeatherDisplay:10.37,2013-11-30 03:47:00,
2013-11-29 20:52:00,31.3,27.0,30.27,East,96,0.0,0.0,84,0.00,CLR,SKC,0.00,WeatherDisplay:10.37,2013-11-30 03:52:00,
2013-11-29 20:57:00,31.2,26.9,30.27,East,98,1.1,1.1,84,0.00,CLR,SKC,0.00,WeatherDisplay:10.37,2013-11-30 03:57:00,
2013-11-29 21:02:00,31.1,27.1,30.28,East,98,0.0,0.0,85,0.00,CLR,SKC,0.00,WeatherDisplay:10.37,2013-11-30 04:02:00,
2013-11-29 21:07:00,31.1,27.1,30.27,East,98,0.0,0.0,85,0.00,CLR,SKC,0.00,WeatherDisplay:10.37,2013-11-30 04:07:00,
2013-11-29 21:12:00,31.1,26.8,30.28,East,98,0.0,0.0,84,0.00,CLR,SKC,0.00,WeatherDisplay:10.37,2013-11-30 04:12:00,
2013-11-29 21:16:00,31.1,26.8,30.28,East,98,0.0,0.0,84,0.00,CLR,SKC,0.00,WeatherDisplay:10.37,2013-11-30 04:16:00,
2013-11-29 21:21:00,31.1,27.1,30.28,East,98,0.0,0.0,85,0.00,CLR,SKC,0.00,WeatherDisplay:10.37,2013-11-30 04:21:00,
2013-11-29 21:26:00,31.0,27.0,30.28,East,98,0.0,0.0,85,0.00,CLR,SKC,0.00,WeatherDisplay:10.37,2013-11-30 04:26:00,
2013-11-29 21:32:00,30.9,26.9,30.28,East,98,0.0,0.0,85,0.00,CLR,SKC,0.00,WeatherDisplay:10.37,2013-11-30 04:32:00,
2013-11-29 21:37:00,30.9,26.9,30.28,East,98,0.0,0.0,85,0.00,CLR,SKC,0.00,WeatherDisplay:10.37,2013-11-30 04:37:00,
2013-11-29 21:42:00,30.8,26.8,30.28,East,98,0.0,0.0,85,0.00,CLR,SKC,0.00,WeatherDisplay:10.37,2013-11-30 04:42:00,
2013-11-29 21:47:00,30.8,26.8,30.28,East,98,0.0,0.0,85,0.00,CLR,SKC,0.00,WeatherDisplay:10.37,2013-11-30 04:47:00,
2013-11-29 21:52:00,30.7,27.0,30.29,East,98,1.1,0.0,86,0.00,CLR,SKC,0.00,WeatherDisplay:10.37,2013-11-30 04:52:00,
2013-11-29 21:57:00,30.7,27.0,30.29,East,98,0.0,0.0,86,0.00,CLR,SKC,0.00,WeatherDisplay:10.37,2013-11-30 04:57:00,
2013-11-29 22:01:00,30.6,26.9,30.29,East,98,0.0,0.0,86,0.00,CLR,SKC,0.00,WeatherDisplay:10.37,2013-11-30 05:01:00,
2013-11-29 22:03:00,30.6,26.9,30.29,East,98,0.0,0.0,86,0.00,CLR,SKC,0.00,WeatherDisplay:10.37,2013-11-30 05:03:00,
2013-11-29 22:05:00,30.6,26.9,30.29,East,98,0.0,0.0,86,0.00,CLR,SKC,0.00,WeatherDisplay:10.37,2013-11-30 05:05:00,
2013-11-29 22:07:00,30.6,26.9,30.29,East,98,0.0,0.0,86,0.00,CLR,SKC,0.00,WeatherDisplay:10.37,2013-11-30 05:07:00,
2013-11-29 22:11:00,30.6,26.9,30.30,East,98,0.0,0.0,86,0.00,CLR,SKC,0.00,WeatherDisplay:10.37,2013-11-30 05:11:00,
2013-11-29 22:16:00,30.5,26.8,30.30,East,98,0.0,0.0,86,0.00,CLR,SKC,0.00,WeatherDisplay:10.37,2013-11-30 05:16:00,
2013-11-29 22:21:00,30.4,27.0,30.30,East,98,0.0,0.0,87,0.00,CLR,SKC,0.00,WeatherDisplay:10.37,2013-11-30 05:21:00,
2013-11-29 22:27:00,30.4,27.0,30.30,East,98,0.0,0.0,87,0.00,CLR,SKC,0.00,WeatherDisplay:10.37,2013-11-30 05:27:00,
2013-11-29 22:32:00,30.4,26.7,30.30,East,98,0.0,0.0,86,0.00,CLR,SKC,0.00,WeatherDisplay:10.37,2013-11-30 05:32:00,
2013-11-29 22:37:00,30.4,26.7,30.29,East,98,0.0,0.0,86,0.00,CLR,SKC,0.00,WeatherDisplay:10.37,2013-11-30 05:37:00,
2013-11-29 22:42:00,30.4,27.0,30.30,East,98,0.0,0.0,87,0.00,CLR,SKC,0.00,WeatherDisplay:10.37,2013-11-30 05:42:00,
2013-11-29 22:47:00,30.3,26.9,30.30,East,98,0.0,0.0,87,0.00,CLR,SKC,0.00,WeatherDisplay:10.37,2013-11-30 05:47:00,
2013-11-29 22:52:00,30.4,27.0,30.30,East,98,1.0,0.0,87,0.00,CLR,SKC,0.00,WeatherDisplay:10.37,2013-11-30 05:52:00,
2013-11-29 22:57:00,30.4,26.7,30.30,East,98,0.0,0.0,86,0.00,CLR,SKC,0.00,WeatherDisplay:10.37,2013-11-30 05:57:00,
2013-11-29 23:02:00,30.4,26.7,30.30,East,98,0.0,0.0,86,0.00,CLR,SKC,0.00,WeatherDisplay:10.37,2013-11-30 06:02:00,
2013-11-29 23:07:00,30.4,27.0,30.30,East,98,0.0,0.0,87,0.00,CLR,SKC,0.00,WeatherDisplay:10.37,2013-11-30 06:07:00,
2013-11-29 23:12:00,30.5,26.8,30.30,East,98,0.0,0.0,86,0.00,CLR,SKC,0.00,WeatherDisplay:10.37,2013-11-30 06:12:00,
2013-11-29 23:17:00,30.5,26.8,30.30,ENE,64,1.1,1.1,86,0.00,CLR,SKC,0.00,WeatherDisplay:10.37,2013-11-30 06:17:00,
2013-11-29 23:22:00,30.5,27.1,30.30,NE,47,1.0,1.0,87,0.00,CLR,SKC,0.00,WeatherDisplay:10.37,2013-11-30 06:22:00,
2013-11-29 23:27:00,30.5,26.8,30.30,NE,47,0.0,0.0,86,0.00,CLR,SKC,0.00,WeatherDisplay:10.37,2013-11-30 06:27:00,
2013-11-29 23:33:00,30.5,26.8,30.30,NE,47,1.1,0.0,86,0.00,CLR,SKC,0.00,WeatherDisplay:10.37,2013-11-30 06:33:00,
2013-11-29 23:38:00,30.5,26.8,30.30,NE,47,0.0,0.0,86,0.00,CLR,SKC,0.00,WeatherDisplay:10.37,2013-11-30 06:38:00,
2013-11-29 23:43:00,30.5,26.8,30.30,NE,47,0.0,0.0,86,0.00,CLR,SKC,0.00,WeatherDisplay:10.37,2013-11-30 06:43:00,
2013-11-29 23:48:00,30.4,26.7,30.30,NE,47,0.0,0.0,86,0.00,CLR,SKC,0.00,WeatherDisplay:10.37,2013-11-30 06:48:00,
2013-11-29 23:53:00,30.4,26.7,30.30,ENE,68,0.0,0.1,86,0.00,CLR,SKC,0.00,WeatherDisplay:10.37,2013-11-30 06:53:00,
2013-11-29 23:58:00,30.3,26.6,30.30,ENE,68,0.0,0.0,86,0.00,CLR,SKC,0.00,WeatherDisplay:10.37,2013-11-30 06:58:00,